Flight Track Log - Related Links

Times and Time Zones

All times are in EDT time to prevent confusion due to time zone crossing. See the C-FTOH flight status page for this flight to view local times or setup timezone preferences in your user account.

Time Position Orientation Groundspeed Altitude Reporting Facility
EDT Latitude Longitude Course Direction KTS MPH feet Rate Location/Type
Sat 05:13:00 PM 44.8120 -75.8449 197° South  Level FlightAware Approximate
Sat 05:14:00 PM 44.6947 -75.8221 196° South  Level FlightAware Approximate
Sat 05:15:00 PM 44.5919 -75.8885 194° South  Level Estimated
Sat 05:15:59 PM 44.7400 -75.9220 193° South 390 449 18,800  Level FlightAware ADS-B
Sat 05:16:00 PM 44.4878 -75.9509 203° Southwest  Level FlightAware Approximate
Sat 05:17:00 PM 44.3762 -76.0024 193° South  Level FlightAware Approximate
Sat 05:18:44 PM 44.4290 -75.9790 187° South 420 483 24,400  Level FlightAware ADS-B
Sat 05:19:34 PM 44.3310 -75.9960 187° South 435 501 25,800 1,400 Climbing FlightAware ADS-B
Sat 05:20:14 PM 44.2600 -76.0090 187° South 441 507 26,500 847 Climbing FlightAware ADS-B
Sat 05:20:59 PM 44.1590 -76.0270 187° South 439 505 27,000 400 Climbing FlightAware ADS-B
Sat 05:21:29 PM 44.1060 -76.0370 188° South 440 506 27,000  Level FlightAware ADS-B
Sat 05:22:14 PM 44.0130 -76.0540 187° South 439 505 27,000  Level FlightAware ADS-B
Sat 05:23:04 PM 43.9050 -76.0730 187° South 438 504 27,000 400 Level FlightAware ADS-B
Sat 05:23:44 PM 43.8230 -76.0880 188° South 447 514 27,600 988 Climbing FlightAware ADS-B
Sat 05:24:29 PM 43.7360 -76.1030 187° South 454 522 28,400 1,200 Climbing FlightAware ADS-B
Sat 05:25:09 PM 43.6480 -76.1190 187° South 459 528 29,300 1,650 Climbing FlightAware ADS-B
Sat 05:25:49 PM 43.5620 -76.1340 187° South 453 521 30,600 1,694 Climbing FlightAware ADS-B
Sat 05:26:34 PM 43.4700 -76.1500 187° South 444 511 31,700 1,200 Climbing FlightAware ADS-B
Sat 05:27:09 PM 43.4000 -76.1630 188° South 443 510 32,200 918 Climbing FlightAware ADS-B
Sat 05:27:59 PM 43.2970 -76.1810 187° South 449 517 33,000 1,133 Climbing FlightAware ADS-B
Sat 05:28:39 PM 43.2140 -76.1950 187° South 448 516 33,900 1,200 Climbing FlightAware ADS-B
Sat 05:29:19 PM 43.1370 -76.2250 196° South 421 484 34,600 1,129 Climbing FlightAware ADS-B
Sat 05:30:04 PM 43.0620 -76.2860 211° Southwest 411 473 35,500 988 Climbing FlightAware ADS-B
Sat 05:30:44 PM 42.9980 -76.3400 212° Southwest 410 472 36,000 353 Climbing FlightAware ADS-B
Sat 05:31:29 PM 42.9250 -76.4000 211° Southwest 410 472 36,000  Level FlightAware ADS-B
Sat 05:31:59 PM 42.8770 -76.4390 211° Southwest 409 471 36,000  Level FlightAware ADS-B
Sat 05:32:39 PM 42.8120 -76.4930 211° Southwest 409 471 36,000  Level FlightAware ADS-B
Sat 05:33:14 PM 42.7560 -76.5380 211° Southwest 408 470 36,000  Level FlightAware ADS-B
Sat 05:34:04 PM 42.6740 -76.6050 211° Southwest 407 468 36,000  Level FlightAware ADS-B
Sat 05:34:44 PM 42.6090 -76.6580 211° Southwest 407 468 36,000  Level FlightAware ADS-B
Sat 05:35:29 PM 42.5370 -76.7160 211° Southwest 405 466 36,000  Level FlightAware ADS-B
Sat 05:36:04 PM 42.4810 -76.7620 211° Southwest 405 466 36,000  Level FlightAware ADS-B
Sat 05:36:49 PM 42.4140 -76.8160 211° Southwest 404 465 36,000  Level FlightAware ADS-B
Sat 05:37:34 PM 42.3360 -76.8790 211° Southwest 404 465 36,000  Level FlightAware ADS-B
Sat 05:38:14 PM 42.2730 -76.9300 211° Southwest 404 465 36,000  Level FlightAware ADS-B
Sat 05:38:54 PM 42.2070 -76.9820 210° Southwest 403 464 36,000  Level FlightAware ADS-B
Sat 05:39:34 PM 42.1430 -77.0340 211° Southwest 401 461 36,000  Level FlightAware ADS-B
Sat 05:40:19 PM 42.0730 -77.0900 211° Southwest 401 461 36,000  Level FlightAware ADS-B
Sat 05:41:04 PM 42.0000 -77.1480 211° Southwest 399 459 36,000  Level FlightAware ADS-B
Sat 05:41:44 PM 41.9360 -77.1990 211° Southwest 400 460 36,000  Level FlightAware ADS-B
Sat 05:42:24 PM 41.8760 -77.2460 210° Southwest 400 460 36,000  Level FlightAware ADS-B
Sat 05:43:09 PM 41.8100 -77.2990 211° Southwest 401 461 36,000  Level FlightAware ADS-B
Sat 05:43:44 PM 41.7570 -77.3400 210° Southwest 401 461 36,000  Level FlightAware ADS-B
Sat 05:44:29 PM 41.6790 -77.4010 210° Southwest 400 460 36,000  Level FlightAware ADS-B
Sat 05:45:14 PM 41.6080 -77.4570 211° Southwest 400 460 36,000  Level FlightAware ADS-B
Sat 05:45:54 PM 41.5430 -77.5080 210° Southwest 399 459 36,000  Level FlightAware ADS-B
Sat 05:46:39 PM 41.4710 -77.5640 210° Southwest 399 459 36,000  Level FlightAware ADS-B
Sat 05:47:19 PM 41.4080 -77.6130 210° Southwest 399 459 36,000  Level FlightAware ADS-B
Sat 05:47:59 PM 41.3430 -77.6640 211° Southwest 399 459 36,000  Level FlightAware ADS-B
Sat 05:48:44 PM 41.2720 -77.7190 210° Southwest 400 460 36,000  Level FlightAware ADS-B
Sat 05:49:24 PM 41.2070 -77.7690 210° Southwest 400 460 36,000  Level FlightAware ADS-B
Sat 05:50:09 PM 41.1390 -77.8220 210° Southwest 402 463 36,000  Level FlightAware ADS-B
Sat 05:50:23 PM 41.1028 -77.8497 210° Southwest 403 464 36,000  Level FlightAware ADS-B
Sat 05:51:34 PM 40.9990 -77.9290 210° Southwest 407 468 36,000  Level FlightAware ADS-B
Sat 05:52:16 PM 40.9320 -77.9810 210° Southwest 408 470 36,000  Level FlightAware ADS-B
Sat 05:52:56 PM 40.8780 -78.0530 225° Southwest 398 458 36,000  Level FlightAware ADS-B
Sat 05:53:36 PM 40.8290 -78.1290 230° Southwest 398 458 36,000  Level FlightAware ADS-B
Sat 05:54:16 PM 40.7790 -78.2000 227° Southwest 406 467 36,000  Level FlightAware ADS-B
Sat 05:54:57 PM 40.7060 -78.2460 206° Southwest 413 475 36,000  Level FlightAware ADS-B
Sat 05:55:47 PM 40.6220 -78.2870 200° South 409 471 36,000  Level FlightAware ADS-B
Sat 05:56:27 PM 40.5480 -78.3230 200° South 414 476 36,000  Level FlightAware ADS-B
Sat 05:57:37 PM 40.4240 -78.3820 200° South 412 474 36,000  Level FlightAware ADS-B
Sat 05:58:22 PM 40.3430 -78.4210 200° South 411 473 36,000  Level FlightAware ADS-B
Sat 05:59:02 PM 40.2730 -78.4550 200° South 411 473 36,000  Level FlightAware ADS-B
Sat 05:59:42 PM 40.1990 -78.4900 200° South 410 472 36,000  Level FlightAware ADS-B
Sat 06:01:02 PM 40.0500 -78.5610 200° South 410 472 36,000  Level FlightAware ADS-B
Sat 06:01:47 PM 39.9720 -78.5990 200° South 410 472 36,000  Level FlightAware ADS-B
Sat 06:02:27 PM 39.8960 -78.6350 200° South 411 473 36,000  Level FlightAware ADS-B
Sat 06:03:12 PM 39.8150 -78.6730 200° South 412 474 36,000  Level FlightAware ADS-B
Sat 06:03:52 PM 39.7470 -78.7050 200° South 414 476 36,000  Level FlightAware ADS-B
Sat 06:04:47 PM 39.6550 -78.7490 200° South 408 470 36,000  Level FlightAware ADS-B
Sat 06:05:27 PM 39.5710 -78.7880 200° South 418 481 36,000  Level FlightAware ADS-B
Sat 06:06:12 PM 39.4890 -78.8260 200° South 419 482 36,000  Level FlightAware ADS-B
Sat 06:06:52 PM 39.4200 -78.8590 200° South 416 479 36,000  Level FlightAware ADS-B
Sat 06:07:32 PM 39.3450 -78.8940 200° South 415 478 36,000  Level FlightAware ADS-B
Sat 06:08:32 PM 39.2590 -78.9320 199° South 414 476 36,000  Level FlightAware ADS-B
Sat 06:09:12 PM 39.1700 -78.9750 201° Southwest 414 476 36,000  Level FlightAware ADS-B
Sat 06:09:57 PM 39.0890 -79.0130 200° South 414 476 36,000  Level FlightAware ADS-B
Sat 06:10:37 PM 39.0180 -79.0450 199° South 416 479 36,000  Level FlightAware ADS-B
Sat 06:11:17 PM 38.9430 -79.0800 200° South 416 479 36,000  Level FlightAware ADS-B
Sat 06:12:02 PM 38.8620 -79.1170 200° South 417 480 36,000  Level FlightAware ADS-B
Sat 06:12:57 PM 38.7610 -79.1630 200° South 419 482 36,000  Level FlightAware ADS-B
Sat 06:13:37 PM 38.6880 -79.1970 200° South 418 481 36,000  Level FlightAware ADS-B
Sat 06:14:17 PM 38.6170 -79.2290 199° South 417 480 36,000  Level FlightAware ADS-B
Sat 06:15:27 PM 38.4860 -79.2890 200° South 409 471 36,000  Level FlightAware ADS-B
Sat 06:16:07 PM 38.4210 -79.3180 199° South 409 471 36,000  Level FlightAware ADS-B
Sat 06:17:52 PM 38.2300 -79.4050 200° South 410 472 36,000  Level FlightAware ADS-B
Sat 06:18:32 PM 38.1570 -79.4380 200° South 411 473 36,000  Level FlightAware ADS-B
Sat 06:19:00 PM 38.1128 -79.4633 200° South 419 482 36,000  Level Washington Center
Sat 06:20:00 PM 38.0028 -79.5131 200° South 419 482 36,000  Level Washington Center
Sat 06:21:00 PM 37.8928 -79.5600 199° South 419 482 36,000  Level Washington Center
Sat 06:22:00 PM 37.7700 -79.6167 200° South 419 482 36,000  Level Washington Center
Sat 06:23:00 PM 37.6600 -79.6631 198° South 419 482 36,000  Level Washington Center
Sat 06:24:00 PM 37.5625 -79.7053 199° South 419 482 36,000  Level Washington Center
Sat 06:25:00 PM 37.4417 -79.7586 199° South 414 476 36,000  Level Washington Center
Sat 06:26:00 PM 37.3400 -79.8056 200° South 424 488 36,000  Level Washington Center
Sat 06:27:00 PM 37.2300 -79.8517 198° South 429 494 36,000  Level Washington Center
Sat 06:28:00 PM 37.1092 -79.9047 199° South 424 488 36,000  Level Washington Center
Sat 06:29:00 PM 36.9967 -79.9531 199° South 424 488 36,000  Level Washington Center
Sat 06:30:11 PM 36.8639 -80.0069 198° South 448 516 36,000  Level Atlanta Center
Sat 06:31:11 PM 36.7547 -80.0539 199° South 438 504 36,000  Level Atlanta Center
Sat 06:32:11 PM 36.6561 -80.0978 200° South 426 490 36,000  Level Atlanta Center
Sat 06:33:11 PM 36.5469 -80.1444 199° South 421 484 36,000  Level Atlanta Center
Sat 06:34:11 PM 36.4358 -80.1911 199° South 421 484 36,000  Level Atlanta Center
Sat 06:35:11 PM 36.3167 -80.2433 199° South 421 484 36,000  Level Atlanta Center
Sat 06:36:11 PM 36.2075 -80.2894 199° South 421 484 36,000  Level Atlanta Center
Sat 06:37:11 PM 36.0964 -80.3358 199° South 421 484 36,000  Level Atlanta Center
Sat 06:38:11 PM 35.9872 -80.3819 199° South 416 479 36,000  Level Atlanta Center
Sat 06:39:11 PM 35.8903 -80.4247 200° South 416 479 36,000 50 Level Atlanta Center
Sat 06:40:11 PM 35.7667 -80.4761 199° South 421 484 36,100 328 Climbing Atlanta Center
Sat 06:45:17 PM 35.2050 -80.7120 199° South 427 491 38,000 320 Climbing FlightAware ADS-B
Sat 06:46:07 PM 35.1050 -80.7530 199° South 425 489 38,000  Level FlightAware ADS-B
Sat 06:46:47 PM 35.0310 -80.7840 199° South 423 487 38,000  Level FlightAware ADS-B
Sat 06:47:22 PM 34.9680 -80.8100 199° South 423 487 38,000  Level FlightAware ADS-B
Sat 06:48:27 PM 34.8440 -80.8610 199° South 424 488 38,000  Level FlightAware ADS-B
Sat 06:49:12 PM 34.7640 -80.8940 199° South 424 488 38,000  Level FlightAware ADS-B
Sat 06:50:02 PM 34.6720 -80.9310 198° South 425 489 38,000  Level FlightAware ADS-B
Sat 06:50:37 PM 34.6040 -80.9590 199° South 425 489 38,000  Level FlightAware ADS-B
Sat 06:51:17 PM 34.5300 -80.9890 198° South 427 491 38,000  Level FlightAware ADS-B
Sat 06:52:12 PM 34.4260 -81.0320 199° South 427 491 38,000  Level FlightAware ADS-B
Sat 06:52:47 PM 34.3630 -81.0570 198° South 427 491 38,000  Level FlightAware ADS-B
Sat 06:53:32 PM 34.2750 -81.0920 198° South 428 493 38,000  Level FlightAware ADS-B
Sat 06:54:17 PM 34.1910 -81.1270 199° South 427 491 38,000  Level FlightAware ADS-B
Sat 06:54:57 PM 34.1230 -81.1540 198° South 428 493 38,000  Level FlightAware ADS-B
Sat 06:55:27 PM 34.0610 -81.1790 198° South 427 491 38,000  Level FlightAware ADS-B
Sat 06:56:07 PM 33.9870 -81.2090 199° South 427 491 38,000  Level FlightAware ADS-B
Sat 06:56:52 PM 33.9040 -81.2420 198° South 428 493 38,000  Level FlightAware ADS-B
Sat 06:57:32 PM 33.8300 -81.2730 199° South 428 493 38,000  Level FlightAware ADS-B
Sat 06:58:12 PM 33.7500 -81.3040 198° South 426 490 38,000  Level FlightAware ADS-B
Sat 06:58:57 PM 33.6660 -81.3370 198° South 424 488 38,000  Level FlightAware ADS-B
Sat 06:59:42 PM 33.5820 -81.3710 199° South 422 486 38,000  Level FlightAware ADS-B
Sat 07:00:22 PM 33.5200 -81.3960 199° South 422 486 38,000  Level FlightAware ADS-B
Sat 07:01:02 PM 33.4410 -81.4270 198° South 422 486 38,000  Level FlightAware ADS-B
Sat 07:01:42 PM 33.3660 -81.4570 198° South 421 484 38,000  Level FlightAware ADS-B
Sat 07:02:27 PM 33.2900 -81.4870 198° South 422 486 38,000  Level FlightAware ADS-B
Sat 07:03:07 PM 33.2130 -81.5170 198° South 421 484 38,000  Level FlightAware ADS-B
Sat 07:03:52 PM 33.1300 -81.5500 198° South 421 484 38,000  Level FlightAware ADS-B
Sat 07:04:42 PM 33.0330 -81.5880 198° South 422 486 38,000  Level FlightAware ADS-B
Sat 07:05:42 PM 32.9240 -81.6310 198° South 423 487 38,000  Level FlightAware ADS-B
Sat 07:06:17 PM 32.8570 -81.6570 198° South 423 487 38,000  Level FlightAware ADS-B
Sat 07:07:07 PM 32.7650 -81.6930 198° South 423 487 38,000  Level FlightAware ADS-B
Sat 07:08:17 PM 32.6370 -81.7440 199° South 423 487 38,000  Level FlightAware ADS-B
Sat 07:08:57 PM 32.6320 -81.7450 190° South 423 487 38,000  Level FlightAware ADS-B
Sat 07:09:42 PM 32.4770 -81.8050 198° South 423 487 38,000  Level FlightAware ADS-B
Sat 07:10:22 PM 32.4050 -81.8330 198° South 423 487 38,000  Level FlightAware ADS-B
Sat 07:11:02 PM 32.3330 -81.8610 198° South 423 487 38,000  Level FlightAware ADS-B
Sat 07:11:37 PM 32.2620 -81.8880 198° South 422 486 38,000  Level FlightAware ADS-B
Sat 07:12:22 PM 32.1850 -81.9190 199° South 422 486 38,000  Level FlightAware ADS-B
Sat 07:13:12 PM 32.1070 -81.9510 199° South 422 486 38,000  Level FlightAware ADS-B
Sat 07:13:52 PM 32.0440 -81.9770 199° South 422 486 38,000  Level FlightAware ADS-B
Sat 07:14:32 PM 31.9810 -82.0020 199° South 422 486 38,000  Level FlightAware ADS-B
Sat 07:15:12 PM 31.9190 -82.0280 200° South 422 486 38,000  Level FlightAware ADS-B
Sat 07:15:52 PM 31.8560 -82.0530 199° South 422 486 38,000  Level FlightAware ADS-B
Sat 07:16:42 PM 31.7770 -82.0850 199° South 422 486 38,000  Level FlightAware ADS-B
Sat 07:17:22 PM 31.7150 -82.1100 199° South 422 486 38,000  Level FlightAware ADS-B
Sat 07:18:02 PM 31.6520 -82.1360 199° South 422 486 38,000  Level FlightAware ADS-B
Sat 07:18:42 PM 31.5890 -82.1610 199° South 422 486 38,000  Level FlightAware ADS-B
Sat 07:19:22 PM 31.5260 -82.1870 199° South 422 486 38,000  Level FlightAware ADS-B
Sat 07:20:12 PM 31.4480 -82.2180 199° South 422 486 38,000  Level FlightAware ADS-B
Sat 07:20:52 PM 31.3850 -82.2440 199° South 422 486 38,000  Level FlightAware ADS-B
Sat 07:21:32 PM 31.3220 -82.2690 199° South 422 486 38,000  Level FlightAware ADS-B
Sat 07:22:16 PM 31.0922 -82.3369 199° South 423 487 38,000 -58 Level Jacksonville Center
Sat 07:23:16 PM 30.9836 -82.3764 197° South 423 487 37,900  Descending Jacksonville Center
Sat 07:24:16 PM 30.8711 -82.4183 198° South 423 487 38,000 50 Climbing Jacksonville Center
Sat 07:25:16 PM 30.7586 -82.4597 198° South 423 487 38,000  Level Jacksonville Center
Sat 07:26:16 PM 30.6481 -82.5039 199° South 423 487 38,000 157 Level Jacksonville Center
Sat 07:31:37 PM 30.1180 -82.8480 199° South 406 467 39,000 160 Climbing FlightAware ADS-B
Sat 07:32:32 PM 30.0340 -82.9120 213° Southwest 404 465 39,000  Level FlightAware ADS-B
Sat 07:33:12 PM 29.9670 -82.9620 213° Southwest 403 464 39,000  Level FlightAware ADS-B
Sat 07:34:27 PM 29.9670 -82.9620 213° Southwest 402 463 39,000  Level FlightAware ADS-B
Sat 07:35:07 PM 29.9140 -83.0020 213° Southwest 402 463 39,000  Level FlightAware ADS-B
Sat 07:36:27 PM 29.6600 -83.1950 213° Southwest 400 460 39,000  Level FlightAware ADS-B
Sat 07:37:12 PM 29.5890 -83.2480 213° Southwest 401 461 39,000  Level FlightAware ADS-B
Sat 07:38:17 PM 29.4890 -83.3230 213° Southwest 402 463 39,000  Level FlightAware ADS-B
Sat 07:38:57 PM 29.4260 -83.3700 213° Southwest 401 461 39,000  Level FlightAware ADS-B
Sat 07:40:02 PM 29.3250 -83.4450 213° Southwest 400 460 39,000  Level FlightAware ADS-B
Sat 07:41:17 PM 29.2090 -83.5320 213° Southwest 392 451 39,000  Level FlightAware ADS-B
Sat 07:42:32 PM 29.0940 -83.6170 213° Southwest 391 450 39,000  Level FlightAware ADS-B
Sat 07:44:02 PM 28.9600 -83.7170 213° Southwest 390 449 39,000  Level FlightAware ADS-B
Sat 07:44:42 PM 28.8970 -83.7630 213° Southwest 391 450 39,000  Level FlightAware ADS-B
Sat 07:45:27 PM 28.8280 -83.8140 213° Southwest 391 450 39,000  Level FlightAware ADS-B
Sat 07:45:57 PM 28.7820 -83.8480 213° Southwest 391 450 39,000  Level FlightAware ADS-B
Sat 07:46:47 PM 28.7050 -83.9050 213° Southwest 399 459 39,000  Level FlightAware ADS-B
Sat 07:47:32 PM 28.6370 -83.9540 212° Southwest 400 460 39,000  Level FlightAware ADS-B
Sat 07:48:12 PM 28.5710 -84.0030 213° Southwest 401 461 39,000  Level FlightAware ADS-B
Sat 07:48:57 PM 28.4980 -84.0560 213° Southwest 402 463 39,000  Level FlightAware ADS-B
Sat 07:49:37 PM 28.4340 -84.1040 213° Southwest 404 465 39,000  Level FlightAware ADS-B
Sat 07:50:17 PM 28.3700 -84.1500 212° Southwest 405 466 39,000  Level FlightAware ADS-B
Sat 07:51:02 PM 28.3000 -84.2010 213° Southwest 405 466 39,000  Level FlightAware ADS-B
Sat 07:51:42 PM 28.2440 -84.2420 213° Southwest 406 467 39,000  Level FlightAware ADS-B
Sat 07:52:27 PM 28.1770 -84.2890 212° Southwest 406 467 39,000  Level FlightAware ADS-B
Sat 07:53:07 PM 28.1230 -84.3270 212° Southwest 406 467 39,000  Level FlightAware ADS-B
Sat 07:53:47 PM 28.0430 -84.3870 214° Southwest 404 465 39,000  Level FlightAware ADS-B
Sat 07:54:32 PM 27.9700 -84.4410 213° Southwest 403 464 39,000  Level FlightAware ADS-B
Sat 07:55:12 PM 27.9060 -84.4860 212° Southwest 402 463 39,000  Level FlightAware ADS-B
Sat 07:56:07 PM 27.8150 -84.5520 213° Southwest 408 470 39,000 -240 Level FlightAware ADS-B
Sat 07:56:52 PM 27.7460 -84.6080 216° Southwest 406 467 38,600 -494 Descending FlightAware ADS-B
Sat 07:57:32 PM 27.6840 -84.6600 217° Southwest 407 468 38,300 -424 Descending FlightAware ADS-B
Sat 07:58:17 PM 27.6170 -84.7150 216° Southwest 408 470 38,000 -212 Descending FlightAware ADS-B
Sat 07:58:57 PM 27.5590 -84.7620 216° Southwest 407 468 38,000  Level FlightAware ADS-B
Sat 07:59:32 PM 27.5090 -84.8040 217° Southwest 407 468 38,000  Level FlightAware ADS-B
Sat 08:00:22 PM 27.4440 -84.8570 216° Southwest 407 468 38,000  Level FlightAware ADS-B
Sat 08:01:02 PM 27.3920 -84.8990 216° Southwest 407 468 38,000  Level FlightAware ADS-B
Sat 08:01:36 PM 27.3275 -84.9533 216° Southwest 405 466 38,000  Level Houston Center
Sat 08:02:38 PM 27.2375 -85.0278 216° Southwest 403 464 38,000  Level Houston Center
Sat 08:03:39 PM 27.1281 -85.1164 216° Southwest 404 465 38,000  Level Houston Center
Sat 08:04:41 PM 27.0372 -85.1903 216° Southwest 404 465 38,000 -49 Level Houston Center
Sat 08:05:42 PM 26.9458 -85.2639 216° Southwest 404 465 37,900 -49 Descending Houston Center
Sat 08:06:44 PM 26.8556 -85.3372 216° Southwest 401 461 37,900 48 Level Houston Center
Sat 08:07:46 PM 26.7658 -85.4103 216° Southwest 400 460 38,000 49 Climbing Houston Center
Sat 08:08:47 PM 26.6789 -85.4789 215° Southwest 398 458 38,000 -49 Level Houston Center
Sat 08:09:49 PM 26.5867 -85.5550 216° Southwest 397 457 37,900  Descending Houston Center
Sat 08:10:50 PM 26.4967 -85.6261 215° Southwest 396 456 38,000  Climbing Houston Center
Sat 08:11:52 PM 26.3881 -85.7128 216° Southwest 400 460 37,900  Descending Houston Center
Sat 08:12:53 PM 26.2978 -85.7847 216° Southwest 400 460 38,000 49 Climbing Houston Center
Sat 08:13:55 PM 26.2061 -85.8583 216° Southwest 404 465 38,000  Level Houston Center
Sat 08:15:00 PM 26.1015 -85.9240 209° Southwest  Level FlightAware Approximate
Sat 08:22:00 PM 25.4441 -86.3711 214° Southwest  Level FlightAware Approximate
Sat 08:23:00 PM 25.3512 -86.4379 211° Southwest  Level FlightAware Approximate
Sat 08:24:00 PM 25.2561 -86.5007 211° Southwest  Level FlightAware Approximate
Sat 08:25:00 PM 25.1609 -86.5633 211° Southwest  Level FlightAware Approximate
Sat 08:26:00 PM 25.0657 -86.6259 211° Southwest  Level FlightAware Approximate
Sat 08:27:00 PM 24.9705 -86.6884 211° Southwest  Level FlightAware Approximate
Sat 08:28:00 PM 24.8752 -86.7508 211° Southwest  Level FlightAware Approximate
Sat 08:29:00 PM 24.7799 -86.8130 210° Southwest  Level FlightAware Approximate
Sat 08:30:00 PM 24.6844 -86.8748 210° Southwest  Level FlightAware Approximate
Sat 08:31:00 PM 24.5889 -86.9366 210° Southwest  Level FlightAware Approximate
Sat 08:32:00 PM 24.4933 -86.9982 210° Southwest  Level FlightAware Approximate
Sat 08:33:00 PM 24.3978 -87.0598 210° Southwest  Level FlightAware Approximate
Sat 08:34:00 PM 24.3022 -87.1212 210° Southwest  Level FlightAware Approximate
Sat 08:35:00 PM 24.2092 -87.1873 214° Southwest  Level FlightAware Approximate
Sat 08:36:00 PM 24.1169 -87.2544 214° Southwest  Level FlightAware Approximate
Sat 08:37:00 PM 24.0257 -87.3232 215° Southwest  Level FlightAware Approximate
Sat 08:38:00 PM 23.9347 -87.3924 215° Southwest  Level FlightAware Approximate
Sat 08:39:00 PM 23.8436 -87.4614 215° Southwest  Level FlightAware Approximate
Sat 08:40:00 PM 23.7526 -87.5304 215° Southwest  Level FlightAware Approximate
Sat 08:41:00 PM 23.6615 -87.5992 215° Southwest  Level FlightAware Approximate
Sat 08:42:00 PM 23.5703 -87.6680 215° Southwest  Level FlightAware Approximate
Sat 08:43:00 PM 23.4824 -87.7413 218° Southwest  Level FlightAware Approximate
Sat 08:44:00 PM 23.3883 -87.7640 159° South  Level FlightAware Approximate
Sat 08:45:00 PM 23.2848 -87.7210 160° South  Level FlightAware Approximate
Sat 08:46:00 PM 23.1803 -87.6808 160° South  Level FlightAware Approximate
Sat 08:47:00 PM 23.0759 -87.6406 161° South  Level FlightAware Approximate
Sat 08:48:00 PM 22.9714 -87.6005 161° South  Level FlightAware Approximate
Sat 08:49:00 PM 22.8676 -87.5588 155° Southeast  Level FlightAware Approximate
Sat 08:50:00 PM 22.7649 -87.5139 161° South  Level FlightAware Approximate
Sat 08:51:00 PM 22.6604 -87.4742 160° South  Level FlightAware Approximate
Sat 08:52:00 PM 22.5548 -87.4387 167° South  Level FlightAware Approximate
Sat 08:53:00 PM 22.4495 -87.4018 161° South  Level FlightAware Approximate
Sat 08:54:00 PM 22.3448 -87.3626 161° South  Level FlightAware Approximate
Sat 08:55:00 PM 22.2402 -87.3232 161° South  Level FlightAware Approximate
Sat 08:56:00 PM 22.1357 -87.2835 161° South  Level FlightAware Approximate
Sat 08:57:00 PM 22.0312 -87.2439 161° South  Level FlightAware Approximate
Sat 08:58:00 PM 21.9267 -87.2042 161° South  Level FlightAware Approximate
Sat 08:59:00 PM 21.8221 -87.1647 161° South  Level FlightAware Approximate
Sat 09:00:00 PM 21.7162 -87.1299 164° South  Level FlightAware Approximate
Sat 09:01:00 PM 21.6112 -87.0946 137° Southeast  Level FlightAware Approximate
Sat 09:02:00 PM 21.5096 -87.0504 161° South  Level FlightAware Approximate
Sat 09:03:00 PM 21.4045 -87.0126 163° South  Level FlightAware Approximate
Sat 09:04:00 PM 21.2987 -86.9773 163° South  Level FlightAware Approximate
Sat 09:05:00 PM 21.1942 -86.9387 155° Southeast  Level FlightAware Approximate
Sat 09:06:00 PM 21.0907 -86.8963 160° South  Level FlightAware Approximate
Sat 09:07:00 PM 21.0365 -86.8771 160° South  Level Estimated
Sat 09:08:00 PM 21.0365 -86.8771 160° South  Level Estimated
Sat 09:09:00 PM 21.0365 -86.8771 160° South  Level Estimated
Sat 09:10:00 PM 21.0365 -86.8771 160° South  Level Estimated
Sat 09:11:00 PM 21.0365 -86.8771 160° South  Level Estimated
Sat 09:12:00 PM 21.0365 -86.8771 160° South  Level Estimated
Sat 09:13:00 PM 21.0365 -86.8771 160° South  Level Estimated
Sat 09:14:00 PM 21.0365 -86.8771 160° South  Level Estimated
Sat 09:15:00 PM 21.0365 -86.8771 160° South  Level Estimated
Sat 09:16:00 PM 21.0365 -86.8771 160° South  Level Estimated
Sat 09:17:00 PM 21.0365 -86.8771 160° South  Level Estimated
Sat 09:18:00 PM 21.0365 -86.8771 160° South  Level Estimated
Sat 09:19:00 PM 21.0365 -86.8771 160° South  Level Estimated
Sat 09:20:00 PM 21.0365 -86.8771 160° South  Level Estimated
Sat 09:21:00 PM 21.0365 -86.8771 160° South  Level Estimated
Sat 09:22:00 PM 21.0365 -86.8771 160° South  Level Estimated
Sat 09:23:00 PM 21.0365 -86.8771 160° South  Level Estimated
Sat 09:24:00 PM 21.0365 -86.8771 160° South  Level Estimated
Sat 09:25:00 PM 21.0365 -86.8771 160° South  Level Estimated
Sat 09:26:00 PM 21.0365 -86.8771 160° South  Level Estimated

Login

Don't have an account? Register now (free) for customized features, flight alerts, and more!